Time;durP1;ratioP1;P1;durP2;ratioP2;P2;SDS_P1;SDS_P2;PMS_P1;PMS_P2;Temp;Humidity;BMP_temperature;BMP_pressure;BME280_temperature;BME280_humidity;BME280_pressure;Samples;Min_cycle;Max_cycle;Signal;HPM_P1;HPM_P2
2023/07/01 00:00:02;;;;;;;6.40;4.90;;;;;;;18.05;87.28;94330.00;5111886;28;20193;-44
2023/07/01 00:02:28;;;;;;;6.40;5.00;;;;;;;18.02;87.76;94334.75;5100850;28;20237;-43
2023/07/01 00:04:55;;;;;;;6.60;5.03;;;;;;;18.01;87.87;94333.94;5090774;28;20197;-42
2023/07/01 00:07:22;;;;;;;8.80;4.87;;;;;;;17.97;87.93;94332.72;5072498;28;20185;-43
2023/07/01 00:09:50;;;;;;;5.47;4.97;;;;;;;17.91;88.04;94319.75;5090534;28;20189;-43
2023/07/01 00:12:18;;;;;;;5.47;4.97;;;;;;;17.92;88.24;94324.75;5090643;28;20204;-42
2023/07/01 00:14:45;;;;;;;7.43;5.60;;;;;;;17.91;88.74;94324.94;5072614;28;20201;-43
2023/07/01 00:17:12;;;;;;;7.13;5.10;;;;;;;17.88;88.80;94322.75;5090310;28;20189;-44
2023/07/01 00:19:39;;;;;;;7.63;5.97;;;;;;;17.85;89.01;94323.13;5090732;28;20182;-43
2023/07/01 00:22:07;;;;;;;5.97;5.40;;;;;;;17.57;89.28;94279.94;5089819;28;20278;-43
2023/07/01 00:24:34;;;;;;;6.93;5.07;;;;;;;17.79;89.33;94324.69;5090515;28;20280;-43
2023/07/01 00:27:02;;;;;;;7.47;5.37;;;;;;;17.76;89.25;94318.09;5090167;28;20573;-42
2023/07/01 00:29:29;;;;;;;7.30;5.20;;;;;;;17.77;89.63;94316.31;5090574;28;20205;-44
2023/07/01 00:31:56;;;;;;;8.33;4.97;;;;;;;17.69;89.66;94319.81;5090100;28;20647;-44
2023/07/01 00:34:22;;;;;;;6.07;5.13;;;;;;;17.70;89.81;94318.84;5090521;28;20189;-43
2023/07/01 00:36:49;;;;;;;7.90;5.47;;;;;;;17.69;90.25;94314.63;5090408;28;20185;-44
2023/07/01 00:39:16;;;;;;;6.80;4.80;;;;;;;17.71;90.15;94322.22;5089973;28;20193;-43
2023/07/01 00:41:43;;;;;;;5.30;4.80;;;;;;;17.73;90.15;94315.06;5090077;28;20700;-43
2023/07/01 00:44:11;;;;;;;6.73;5.00;;;;;;;17.76;90.50;94314.72;5090215;28;20178;-43
2023/07/01 00:46:37;;;;;;;7.93;5.27;;;;;;;17.74;90.00;94309.72;5089893;28;20268;-44
2023/07/01 00:49:04;;;;;;;5.90;5.30;;;;;;;17.72;89.95;94313.47;5089837;28;20197;-44
2023/07/01 00:51:31;;;;;;;5.97;5.27;;;;;;;17.74;89.79;94311.50;5090073;28;20197;-43
2023/07/01 00:53:58;;;;;;;6.63;5.40;;;;;;;17.69;89.72;94306.09;5090423;28;20178;-45
2023/07/01 00:56:25;;;;;;;6.03;5.43;;;;;;;17.70;90.34;94311.09;5090285;28;20182;-42
2023/07/01 00:58:52;;;;;;;6.87;5.90;;;;;;;17.72;90.26;94308.28;5089770;28;20193;-44
2023/07/01 01:01:25;;;;;;;9.00;6.17;;;;;;;17.71;90.49;94310.09;5088823;28;20751;-44
2023/07/01 01:04:09;;;;;;;7.13;5.57;;;;;;;17.64;90.51;94314.41;5089326;28;20235;-42
2023/07/01 01:06:43;;;;;;;5.70;5.20;;;;;;;17.55;90.46;94320.72;5089848;28;20181;-43
2023/07/01 01:09:15;;;;;;;9.03;5.53;;;;;;;17.52;90.42;94315.94;5089536;28;20204;-44
2023/07/01 01:11:46;;;;;;;6.97;5.67;;;;;;;17.51;90.72;94315.13;5090002;28;20189;-43
2023/07/01 01:14:14;;;;;;;6.50;5.80;;;;;;;17.51;90.74;94315.13;5089429;28;20197;-43
2023/07/01 01:16:44;;;;;;;7.70;5.87;;;;;;;17.50;90.67;94317.91;5089612;28;20194;-45
2023/07/01 01:19:22;;;;;;;6.03;5.43;;;;;;;17.47;91.18;94306.16;5089658;28;20622;-44
2023/07/01 01:21:57;;;;;;;6.53;4.90;;;;;;;17.44;90.89;94300.56;5089611;28;20213;-43
2023/07/01 01:24:30;;;;;;;11.03;6.27;;;;;;;17.45;91.18;94307.34;5089002;28;20286;-44
2023/07/01 01:27:00;;;;;;;10.07;5.63;;;;;;;17.32;91.16;94281.41;5089578;28;20200;-43
2023/07/01 01:29:29;;;;;;;7.50;5.47;;;;;;;17.42;91.45;94302.53;5048012;28;20252;-44
2023/07/01 01:31:57;;;;;;;6.10;5.27;;;;;;;17.44;91.52;94303.16;5049382;28;20211;-42
2023/07/01 01:34:24;;;;;;;8.63;5.90;;;;;;;17.48;91.76;94307.75;5049127;28;20202;-44
2023/07/01 01:36:57;;;;;;;6.03;5.43;;;;;;;17.43;90.87;94306.72;5049363;28;20201;-44
2023/07/01 01:39:30;;;;;;;7.73;5.47;;;;;;;17.36;90.71;94311.88;5049185;28;20198;-45
2023/07/01 01:42:02;;;;;;;6.47;5.80;;;;;;;17.29;91.03;94298.88;5049197;28;20226;-44
2023/07/01 01:44:45;;;;;;;6.73;6.03;;;;;;;17.23;91.10;94297.06;5049401;28;20245;-43
2023/07/01 01:47:16;;;;;;;6.43;5.33;;;;;;;17.23;91.08;94298.84;5049416;28;20230;-43
2023/07/01 01:49:43;;;;;;;8.23;5.27;;;;;;;17.20;91.21;94300.00;5049153;28;20270;-42
2023/07/01 01:52:13;;;;;;;9.87;5.20;;;;;;;17.18;91.22;94299.38;5049260;28;20599;-44
2023/07/01 01:54:41;;;;;;;12.00;6.20;;;;;;;17.16;91.16;94303.97;5049015;28;20625;-44
2023/07/01 01:57:08;;;;;;;7.77;5.93;;;;;;;17.14;91.39;94297.38;5049158;28;20218;-50
2023/07/01 01:59:36;;;;;;;7.70;5.73;;;;;;;17.13;91.52;94303.53;5049832;28;20198;-44
2023/07/01 02:02:04;;;;;;;7.07;5.80;;;;;;;17.11;91.72;94290.81;5049136;28;20698;-44
2023/07/01 02:04:30;;;;;;;6.87;5.73;;;;;;;17.10;91.80;94294.38;5049119;28;20634;-45
2023/07/01 02:06:57;;;;;;;6.17;5.57;;;;;;;17.09;92.07;94297.94;5049097;28;20666;-45
2023/07/01 02:09:24;;;;;;;9.70;5.60;;;;;;;17.08;92.23;94298.13;5049032;28;20191;-44
2023/07/01 02:11:51;;;;;;;7.93;5.97;;;;;;;17.08;92.56;94298.94;5049297;28;20187;-43
2023/07/01 02:14:17;;;;;;;9.33;6.10;;;;;;;17.08;92.56;94298.13;5051604;28;20268;-45
2023/07/01 02:16:45;;;;;;;6.37;5.77;;;;;;;17.09;92.59;94297.13;5052768;28;20191;-45
2023/07/01 02:19:12;;;;;;;7.77;6.83;;;;;;;17.03;92.62;94290.94;5052589;28;20268;-44
2023/07/01 02:21:39;;;;;;;8.53;5.97;;;;;;;17.09;92.71;94294.56;5052504;28;20214;-44
2023/07/01 02:24:06;;;;;;;7.57;6.87;;;;;;;17.09;92.98;94297.13;5052579;28;20590;-44
2023/07/01 02:26:33;;;;;;;8.47;6.43;;;;;;;16.92;93.51;94271.56;5052664;28;20260;-43
2023/07/01 02:29:00;;;;;;;7.53;6.70;;;;;;;16.98;93.60;94281.16;5086347;28;20221;-43
2023/07/01 02:31:27;;;;;;;7.47;6.63;;;;;;;17.00;93.73;94281.78;5092528;28;20630;-44
2023/07/01 02:34:00;;;;;;;11.83;6.73;;;;;;;17.08;93.83;94292.97;5092525;28;20201;-42
2023/07/01 02:36:27;;;;;;;8.50;6.50;;;;;;;17.09;93.60;94291.97;5092564;28;20222;-44
2023/07/01 02:38:54;;;;;;;8.03;6.27;;;;;;;17.03;93.68;94288.34;5092581;28;20194;-44
2023/07/01 02:41:20;;;;;;;7.57;6.80;;;;;;;17.08;93.60;94303.28;5092432;28;20182;-44
2023/07/01 02:43:47;;;;;;;7.30;6.23;;;;;;;17.03;93.67;94306.44;5092342;28;20635;-43
2023/07/01 02:46:14;;;;;;;9.70;6.10;;;;;;;17.00;93.71;94310.19;5092043;28;20191;-44
2023/07/01 02:48:41;;;;;;;7.43;6.73;;;;;;;17.05;93.76;94310.44;5092088;28;20626;-45
2023/07/01 02:51:09;;;;;;;7.67;6.87;;;;;;;17.03;93.85;94309.03;5092226;28;20197;-45
2023/07/01 02:53:36;;;;;;;10.33;6.40;;;;;;;17.01;94.12;94309.22;5092307;28;20197;-44
2023/07/01 02:56:03;;;;;;;9.67;7.10;;;;;;;17.02;94.08;94310.03;5092119;28;20186;-42
2023/07/01 02:58:29;;;;;;;7.27;6.63;;;;;;;17.01;93.63;94311.81;5092081;28;20221;-44
2023/07/01 03:00:56;;;;;;;6.97;6.27;;;;;;;17.02;94.00;94321.16;5091743;28;20190;-43
2023/07/01 03:03:23;;;;;;;8.23;6.90;;;;;;;16.83;93.90;94285.59;5092074;28;20221;-44
2023/07/01 03:05:50;;;;;;;9.73;6.70;;;;;;;17.06;94.14;94321.59;5092232;28;20694;-43
2023/07/01 03:08:18;;;;;;;13.23;6.77;;;;;;;17.04;93.96;94324.34;5092350;28;20189;-45
2023/07/01 03:10:45;;;;;;;12.70;6.70;;;;;;;17.05;93.95;94323.38;5092237;28;20258;-45
2023/07/01 03:13:12;;;;;;;7.10;6.40;;;;;;;17.09;93.84;94322.97;5091670;28;20192;-45
2023/07/01 03:15:39;;;;;;;8.60;6.93;;;;;;;17.04;93.78;94313.19;5091639;28;20190;-44
2023/07/01 03:18:05;;;;;;;8.83;7.13;;;;;;;17.05;93.95;94314.78;5091569;28;20262;-44
2023/07/01 03:20:32;;;;;;;8.50;6.70;;;;;;;17.08;93.73;94318.78;5091612;28;20251;-42
2023/07/01 03:22:59;;;;;;;11.07;7.40;;;;;;;17.06;93.90;94311.25;5091151;28;20209;-45
2023/07/01 03:25:28;;;;;;;7.50;6.37;;;;;;;17.10;93.93;94315.06;5090822;28;20200;-43
2023/07/01 03:27:55;;;;;;;7.97;7.17;;;;;;;17.16;93.96;94322.03;5091203;28;20225;-44
2023/07/01 03:30:28;;;;;;;11.30;7.00;;;;;;;17.18;93.75;94320.06;5091610;28;20178;-43
2023/07/01 03:32:56;;;;;;;6.23;5.63;;;;;;;17.21;93.56;94308.56;5091352;28;20182;-44
2023/07/01 03:35:23;;;;;;;9.43;6.67;;;;;;;17.22;93.40;94315.31;5091408;28;20185;-43
2023/07/01 03:37:49;;;;;;;7.23;6.43;;;;;;;17.22;93.28;94313.53;5091195;28;20194;-44
2023/07/01 03:40:16;;;;;;;8.10;6.43;;;;;;;17.13;93.51;94301.75;5091457;28;20571;-42
2023/07/01 03:42:44;;;;;;;7.67;6.20;;;;;;;17.30;93.37;94322.94;5091440;28;20217;-43
2023/07/01 03:45:13;;;;;;;11.33;6.93;;;;;;;17.32;93.51;94317.59;5091407;28;20186;-44
2023/07/01 03:47:42;;;;;;;7.73;6.57;;;;;;;17.19;93.50;94288.09;5091493;28;20270;-43
2023/07/01 03:50:10;;;;;;;6.87;5.70;;;;;;;17.43;93.22;94319.66;5091537;28;20193;-44
2023/07/01 03:52:37;;;;;;;7.10;6.47;;;;;;;17.47;93.11;94316.50;5091260;28;20189;-47
2023/07/01 03:55:05;;;;;;;12.90;6.50;;;;;;;17.52;93.07;94324.47;5091331;28;20194;-44
2023/07/01 03:57:32;;;;;;;6.90;6.30;;;;;;;17.59;92.92;94319.38;5091595;28;20178;-43
2023/07/01 04:00:00;;;;;;;7.07;6.40;;;;;;;17.67;92.60;94328.75;5090815;28;20213;-44
2023/07/01 04:02:28;;;;;;;6.50;5.90;;;;;;;17.77;91.84;94321.47;5091284;28;20220;-46
2023/07/01 04:04:54;;;;;;;7.77;7.07;;;;;;;17.82;91.29;94320.91;5090972;28;20182;-44
2023/07/01 04:07:23;;;;;;;7.17;6.47;;;;;;;17.87;91.00;94319.34;5091071;28;20178;-45
2023/07/01 04:09:50;;;;;;;7.60;6.90;;;;;;;17.91;90.46;94312.00;5090727;28;20202;-45
2023/07/01 04:12:17;;;;;;;9.17;5.93;;;;;;;17.98;90.37;94318.81;5091329;28;20208;-43
2023/07/01 04:14:44;;;;;;;7.03;6.30;;;;;;;17.92;89.92;94291.13;5090512;28;20186;-44
2023/07/01 04:17:12;;;;;;;10.30;7.30;;;;;;;18.15;89.70;94318.47;5090937;28;20201;-44
2023/07/01 04:19:38;;;;;;;7.20;6.10;;;;;;;18.20;89.47;94314.31;5090756;28;20197;-44
2023/07/01 04:22:05;;;;;;;9.27;6.83;;;;;;;18.22;89.58;94314.09;5090698;28;20201;-43
2023/07/01 04:24:32;;;;;;;7.07;6.37;;;;;;;18.26;89.23;94313.56;5090596;28;20202;-42
2023/07/01 04:26:59;;;;;;;8.53;7.17;;;;;;;18.34;88.80;94315.16;5090745;28;20185;-42
2023/07/01 04:29:26;;;;;;;7.73;7.03;;;;;;;18.43;88.16;94318.34;5091225;28;20194;-44
2023/07/01 04:31:52;;;;;;;9.50;6.57;;;;;;;18.42;87.55;94293.47;5090359;28;20562;-44
2023/07/01 04:34:21;;;;;;;9.50;7.07;;;;;;;18.60;87.73;94311.03;5090407;28;20190;-43
2023/07/01 04:36:47;;;;;;;7.77;6.63;;;;;;;18.65;87.41;94316.41;5090098;28;20185;-44
2023/07/01 04:39:14;;;;;;;15.13;7.17;;;;;;;18.75;87.05;94309.13;5090267;28;20182;-45
2023/07/01 04:41:41;;;;;;;10.07;6.67;;;;;;;18.83;86.61;94308.13;5090123;28;20204;-45
2023/07/01 04:44:08;;;;;;;9.00;6.90;;;;;;;18.92;86.35;94317.31;5090195;28;20560;-44
2023/07/01 04:46:34;;;;;;;7.80;7.10;;;;;;;19.04;85.70;94313.09;5090366;28;20201;-45
2023/07/01 04:49:01;;;;;;;8.27;7.20;;;;;;;19.09;84.97;94313.31;5090102;28;20181;-44
2023/07/01 04:51:29;;;;;;;8.93;7.23;;;;;;;19.17;84.37;94310.53;5090315;28;20224;-46
2023/07/01 04:53:56;;;;;;;8.27;7.47;;;;;;;19.26;83.84;94319.72;5090388;28;20185;-48
2023/07/01 04:56:24;;;;;;;7.80;6.80;;;;;;;19.36;83.12;94324.47;5090188;28;20186;-46
2023/07/01 04:58:53;;;;;;;8.20;7.40;;;;;;;19.44;82.84;94323.50;5089957;28;20193;-45
2023/07/01 05:01:20;;;;;;;8.37;6.63;;;;;;;19.55;82.30;94331.44;5090299;28;20284;-45
2023/07/01 05:03:47;;;;;;;8.93;7.80;;;;;;;19.64;81.52;94332.03;5089955;28;20709;-44
2023/07/01 05:06:13;;;;;;;8.53;7.73;;;;;;;19.66;80.80;94329.28;5090335;28;20198;-46
2023/07/01 05:08:43;;;;;;;7.97;6.90;;;;;;;19.62;80.57;94330.66;5089772;28;20194;-45
2023/07/01 05:11:09;;;;;;;9.27;7.03;;;;;;;19.71;80.53;94332.84;5089834;28;20193;-45
2023/07/01 05:13:36;;;;;;;8.07;7.27;;;;;;;19.89;80.37;94342.59;5089649;28;20193;-45
2023/07/01 05:16:03;;;;;;;8.83;7.67;;;;;;;20.19;80.01;94329.91;5089960;28;20189;-46
2023/07/01 05:18:30;;;;;;;15.50;7.50;;;;;;;20.42;78.18;94310.44;5089545;28;20198;-44
2023/07/01 05:20:56;;;;;;;9.60;7.93;;;;;;;20.86;77.34;94338.22;5089566;28;20189;-45
2023/07/01 05:23:23;;;;;;;11.80;7.53;;;;;;;21.16;76.55;94340.22;5089692;28;20210;-46
2023/07/01 05:25:51;;;;;;;7.88;7.15;;;;;;;21.58;74.09;94340.47;5089938;28;20189;-44
2023/07/01 05:28:18;;;;;;;8.18;7.38;;;;;;;21.93;72.53;94338.13;5089377;28;20221;-47
2023/07/01 05:30:46;;;;;;;8.75;6.90;;;;;;;22.09;72.00;94321.94;5089829;28;20182;-45
2023/07/01 05:33:13;;;;;;;10.70;6.72;;;;;;;22.56;71.64;94337.84;5089497;28;20284;-45
2023/07/01 05:35:40;;;;;;;7.35;6.65;;;;;;;22.87;69.24;94315.16;5089775;28;20198;-43
2023/07/01 05:38:08;;;;;;;8.30;7.20;;;;;;;23.29;67.62;94336.81;5089654;28;20185;-43
2023/07/01 05:40:35;;;;;;;7.40;6.70;;;;;;;23.57;65.67;94337.97;5090019;28;20193;-46
2023/07/01 05:43:04;;;;;;;10.48;7.80;;;;;;;23.67;64.54;94339.03;5089746;28;20702;-44
2023/07/01 05:45:31;;;;;;;11.73;7.93;;;;;;;23.70;64.23;94340.38;5089373;28;20202;-45
2023/07/01 05:47:58;;;;;;;8.10;7.28;;;;;;;23.63;64.05;94335.25;5090171;28;20182;-45
2023/07/01 05:50:25;;;;;;;8.57;7.68;;;;;;;23.61;64.78;94339.13;5093129;28;20193;-44
2023/07/01 05:52:51;;;;;;;7.78;7.07;;;;;;;23.76;63.81;94332.44;5093719;28;20193;-45
2023/07/01 05:55:18;;;;;;;8.35;7.43;;;;;;;24.00;63.68;94335.03;5094564;28;20209;-46
2023/07/01 05:57:45;;;;;;;9.25;7.28;;;;;;;24.29;62.59;94343.72;5093812;28;20197;-43
2023/07/01 06:00:16;;;;;;;8.18;7.28;;;;;;;24.61;62.09;94338.09;5093274;28;20189;-45
2023/07/01 06:02:43;;;;;;;7.70;6.88;;;;;;;24.98;60.73;94318.34;5093472;28;20228;-44
2023/07/01 06:05:10;;;;;;;7.82;7.00;;;;;;;25.49;58.52;94350.63;5093607;28;20190;-45
2023/07/01 06:07:36;;;;;;;8.45;7.65;;;;;;;25.53;57.46;94354.34;5093345;28;20193;-48
2023/07/01 06:10:03;;;;;;;8.23;7.28;;;;;;;25.43;57.79;94356.00;5092974;28;20186;-46
2023/07/01 06:12:30;;;;;;;9.20;7.03;;;;;;;25.58;57.32;94352.84;5093832;28;20192;-46
2023/07/01 06:14:57;;;;;;;8.27;7.38;;;;;;;25.81;56.91;94347.44;5093499;28;20190;-48
2023/07/01 06:17:26;;;;;;;11.02;6.82;;;;;;;25.94;56.71;94354.16;5093109;28;20224;-47
2023/07/01 06:19:53;;;;;;;9.23;7.53;;;;;;;25.92;56.50;94338.69;5093009;28;20715;-43
2023/07/01 06:22:20;;;;;;;7.82;7.05;;;;;;;26.14;55.62;94343.16;5092831;28;20190;-46
2023/07/01 06:24:46;;;;;;;8.65;7.35;;;;;;;26.23;55.51;94350.38;5092758;28;20209;-46
2023/07/01 06:27:13;;;;;;;9.50;6.78;;;;;;;26.44;54.51;94351.44;5092629;28;20261;-44
2023/07/01 06:29:40;;;;;;;7.25;6.55;;;;;;;26.54;54.18;94347.34;5092949;28;20272;-44
2023/07/01 06:32:08;;;;;;;7.88;7.18;;;;;;;26.59;54.00;94340.31;5092477;28;20186;-47
2023/07/01 06:34:36;;;;;;;7.03;6.32;;;;;;;26.87;53.99;94341.94;5092895;28;20594;-46
2023/07/01 06:37:04;;;;;;;8.15;7.05;;;;;;;27.04;52.92;94341.81;5092199;28;20198;-44
2023/07/01 06:39:30;;;;;;;7.35;6.65;;;;;;;27.11;52.94;94347.69;5092770;28;20196;-46
2023/07/01 06:41:57;;;;;;;7.15;6.47;;;;;;;27.17;52.93;94338.81;5092518;28;20193;-45
2023/07/01 06:44:24;;;;;;;11.02;6.25;;;;;;;27.17;52.50;94345.91;5092485;28;20692;-45
2023/07/01 06:46:51;;;;;;;8.93;5.97;;;;;;;27.27;52.93;94332.84;5092548;28;20638;-48
2023/07/01 06:49:17;;;;;;;9.07;6.32;;;;;;;27.50;52.34;94335.16;5092596;28;20182;-46
2023/07/01 06:51:46;;;;;;;9.18;5.97;;;;;;;27.70;51.52;94338.97;5092555;28;20189;-45
2023/07/01 06:54:12;;;;;;;7.03;6.32;;;;;;;27.38;50.77;94282.00;5091973;28;20628;-47
2023/07/01 06:56:39;;;;;;;8.18;6.22;;;;;;;27.63;51.23;94323.41;5092154;28;20547;-46
2023/07/01 06:59:06;;;;;;;7.40;6.25;;;;;;;27.48;51.16;94331.19;5092024;28;20288;-46
2023/07/01 07:01:33;;;;;;;10.27;5.93;;;;;;;27.61;51.47;94330.75;5092309;28;20280;-46
2023/07/01 07:04:00;;;;;;;6.68;5.40;;;;;;;27.90;50.90;94312.84;5091857;28;20221;-45
2023/07/01 07:06:26;;;;;;;6.90;6.05;;;;;;;28.18;50.29;94326.63;5092133;28;20190;-46
2023/07/01 07:08:55;;;;;;;7.72;6.60;;;;;;;28.40;48.97;94322.00;5092134;28;20190;-46
2023/07/01 07:11:21;;;;;;;8.80;6.15;;;;;;;28.53;48.36;94326.00;5092263;28;20193;-45
2023/07/01 07:13:48;;;;;;;7.13;5.57;;;;;;;28.51;48.19;94322.84;5092123;28;20565;-45
2023/07/01 07:16:15;;;;;;;5.82;5.20;;;;;;;28.46;49.56;94293.91;5092263;28;20334;-46
2023/07/01 07:18:42;;;;;;;9.32;6.78;;;;;;;28.90;48.20;94302.16;5091981;28;20193;-45
2023/07/01 07:21:09;;;;;;;6.60;5.97;;;;;;;28.96;48.24;94309.00;5092171;28;20189;-46
2023/07/01 07:23:36;;;;;;;7.68;6.57;;;;;;;29.16;47.46;94310.88;5091317;28;20270;-44
2023/07/01 07:26:05;;;;;;;8.60;6.18;;;;;;;29.03;47.22;94305.34;5091451;28;20258;-44
2023/07/01 07:28:31;;;;;;;9.95;6.47;;;;;;;29.12;47.44;94309.81;5091529;28;20321;-45
2023/07/01 07:30:58;;;;;;;8.30;5.63;;;;;;;29.26;47.59;94310.09;5091284;28;20645;-45
2023/07/01 07:33:25;;;;;;;7.43;5.53;;;;;;;29.49;46.98;94314.03;5091374;28;20645;-47
2023/07/01 07:35:52;;;;;;;11.88;5.80;;;;;;;29.64;46.66;94313.25;5091075;28;20201;-43
2023/07/01 07:38:19;;;;;;;8.90;5.05;;;;;;;29.98;45.56;94308.19;5091402;28;20266;-44
2023/07/01 07:40:45;;;;;;;11.88;5.50;;;;;;;30.14;45.72;94309.75;5090915;28;20567;-45
2023/07/01 07:43:14;;;;;;;9.95;5.38;;;;;;;30.34;44.13;94311.50;5091002;28;20203;-45
2023/07/01 07:45:40;;;;;;;8.50;5.40;;;;;;;30.34;44.38;94303.59;5091143;28;20181;-46
2023/07/01 07:48:07;;;;;;;7.38;5.25;;;;;;;30.46;43.87;94298.78;5091551;28;20182;-44
2023/07/01 07:50:35;;;;;;;7.80;5.15;;;;;;;30.56;44.05;94297.16;5091821;28;20205;-47
2023/07/01 07:53:03;;;;;;;5.93;4.97;;;;;;;30.73;42.99;94293.13;5091678;28;20259;-44
2023/07/01 07:55:33;;;;;;;10.07;5.18;;;;;;;30.83;42.35;94297.56;5090705;28;20502;-46
2023/07/01 07:58:00;;;;;;;5.10;4.65;;;;;;;30.91;42.60;94304.88;5090816;28;20642;-45
2023/07/01 08:00:28;;;;;;;5.93;5.35;;;;;;;30.97;42.42;94300.38;5090731;28;20638;-45
2023/07/01 08:02:55;;;;;;;4.78;4.38;;;;;;;30.95;42.05;94284.78;5090881;28;20196;-44
2023/07/01 08:05:23;;;;;;;7.18;4.88;;;;;;;30.94;41.84;94291.13;5090782;28;20229;-46
2023/07/01 08:07:50;;;;;;;8.05;4.40;;;;;;;31.03;41.40;94285.25;5090331;28;20194;-46
2023/07/01 08:10:17;;;;;;;5.82;4.43;;;;;;;31.18;41.94;94285.94;5090294;28;20200;-47
2023/07/01 08:12:44;;;;;;;6.43;4.97;;;;;;;31.38;41.42;94278.94;5090315;28;20546;-45
2023/07/01 08:15:11;;;;;;;11.70;5.43;;;;;;;31.24;40.87;94284.03;5090663;28;20251;-45
2023/07/01 08:17:40;;;;;;;5.30;4.80;;;;;;;31.17;41.14;94279.06;5090361;28;20247;-46
2023/07/01 08:20:08;;;;;;;6.75;4.70;;;;;;;30.53;42.14;94279.22;5090536;28;20262;-46
2023/07/01 08:22:34;;;;;;;5.25;4.63;;;;;;;30.50;42.59;94280.56;5090270;28;20255;-45
2023/07/01 08:25:01;;;;;;;5.55;4.88;;;;;;;30.49;42.55;94258.66;5090261;28;20229;-46
2023/07/01 08:27:28;;;;;;;7.47;4.82;;;;;;;30.72;41.79;94283.63;5090283;28;20229;-46
2023/07/01 08:29:55;;;;;;;5.43;4.82;;;;;;;30.82;41.40;94264.28;5090525;28;20620;-45
2023/07/01 08:32:21;;;;;;;5.00;4.50;;;;;;;30.81;41.70;94270.63;5090032;28;20645;-45
2023/07/01 08:34:50;;;;;;;6.43;4.43;;;;;;;30.79;42.58;94280.69;5090315;28;20262;-45
2023/07/01 08:37:16;;;;;;;6.95;4.43;;;;;;;30.85;42.92;94268.22;5089954;28;20197;-45
2023/07/01 08:39:43;;;;;;;7.13;5.00;;;;;;;30.93;42.86;94262.38;5090668;28;20185;-44
2023/07/01 08:42:17;;;;;;;10.23;5.53;;;;;;;30.91;42.00;94254.69;5090279;28;20217;-43
2023/07/01 08:44:45;;;;;;;5.00;4.50;;;;;;;31.03;42.67;94270.19;5090575;28;20225;-44
2023/07/01 08:47:13;;;;;;;4.70;4.32;;;;;;;31.08;43.06;94262.22;5090027;28;20204;-46
2023/07/01 08:49:42;;;;;;;4.53;4.10;;;;;;;31.19;43.25;94263.75;5089662;28;20715;-45
2023/07/01 08:52:13;;;;;;;6.93;4.65;;;;;;;31.25;42.85;94261.84;5090071;28;20186;-45
2023/07/01 08:54:40;;;;;;;8.20;4.97;;;;;;;31.26;41.61;94255.47;5089736;28;20200;-46
2023/07/01 08:57:09;;;;;;;5.35;4.85;;;;;;;31.23;42.20;94256.06;5090317;28;20732;-45
2023/07/01 08:59:36;;;;;;;7.70;5.05;;;;;;;31.38;42.56;94258.56;5089762;28;20280;-45
2023/07/01 09:02:03;;;;;;;5.75;5.20;;;;;;;31.49;42.60;94254.00;5089775;28;20526;-47
2023/07/01 09:04:30;;;;;;;5.50;4.30;;;;;;;31.63;42.35;94254.13;5089482;28;20244;-46
2023/07/01 09:06:57;;;;;;;5.45;4.95;;;;;;;31.55;41.41;94254.72;5090177;28;20200;-47
2023/07/01 09:09:25;;;;;;;5.85;5.25;;;;;;;31.32;41.00;94248.34;5089602;28;20196;-45
2023/07/01 09:11:52;;;;;;;5.75;5.15;;;;;;;31.29;41.30;94241.75;5089859;28;20279;-43
2023/07/01 09:14:19;;;;;;;5.35;4.05;;;;;;;31.27;41.00;94241.22;5089715;28;20193;-45
2023/07/01 09:16:47;;;;;;;6.05;5.45;;;;;;;31.36;41.20;94236.94;5089642;28;20197;-45
2023/07/01 09:19:16;;;;;;;8.20;4.63;;;;;;;31.33;41.25;94237.47;5089668;28;20182;-44
2023/07/01 09:21:43;;;;;;;4.30;3.90;;;;;;;31.34;40.87;94231.13;5090129;28;20272;-44
2023/07/01 09:24:12;;;;;;;7.38;3.78;;;;;;;31.36;39.90;94225.56;5092768;28;20244;-45
2023/07/01 09:26:41;;;;;;;5.50;4.28;;;;;;;31.15;39.45;94214.38;5094322;28;20722;-44
2023/07/01 09:29:10;;;;;;;5.40;4.47;;;;;;;31.26;40.38;94222.97;5093511;28;20600;-46
2023/07/01 09:31:44;;;;;;;4.47;4.07;;;;;;;31.28;39.99;94218.22;5093691;28;20197;-45
2023/07/01 09:34:11;;;;;;;9.65;4.90;;;;;;;31.28;40.25;94213.75;5093977;28;20216;-45
2023/07/01 09:36:38;;;;;;;6.75;4.65;;;;;;;31.15;40.50;94217.81;5094024;28;20189;-45
2023/07/01 09:39:05;;;;;;;5.22;4.22;;;;;;;30.83;40.83;94215.69;5093753;28;20189;-43
2023/07/01 09:41:32;;;;;;;10.10;4.95;;;;;;;30.83;40.92;94212.25;5093519;28;20181;-46
2023/07/01 09:44:00;;;;;;;5.53;4.15;;;;;;;30.76;41.60;94199.38;5093605;28;20225;-45
2023/07/01 09:46:43;;;;;;;4.70;4.30;;;;;;;30.61;41.18;94200.22;5093059;28;20223;-46
2023/07/01 09:49:10;;;;;;;6.78;4.18;;;;;;;30.63;41.65;94197.34;5094548;28;20668;-46
2023/07/01 09:51:47;;;;;;;7.65;4.13;;;;;;;30.64;41.51;94183.06;5093752;28;20182;-45
2023/07/01 09:54:28;;;;;;;5.03;4.55;;;;;;;30.73;41.81;94186.72;5092610;28;20584;-45
2023/07/01 09:56:57;;;;;;;5.85;4.15;;;;;;;30.81;42.05;94188.00;5093580;28;20221;-45
2023/07/01 09:59:25;;;;;;;6.22;5.15;;;;;;;30.80;41.97;94186.41;5092980;28;20637;-47
2023/07/01 10:01:55;;;;;;;5.22;4.35;;;;;;;30.68;42.07;94187.53;5093078;28;20189;-45
2023/07/01 10:04:25;;;;;;;4.57;4.22;;;;;;;30.73;41.63;94173.53;5075195;28;20225;-45
2023/07/01 10:06:53;;;;;;;7.05;4.85;;;;;;;30.64;41.90;94167.22;5093255;28;20706;-46
2023/07/01 10:09:19;;;;;;;7.22;4.70;;;;;;;30.62;41.80;94172.00;5092860;28;20684;-45
2023/07/01 10:11:47;;;;;;;10.40;4.53;;;;;;;30.55;42.51;94168.88;5092796;28;20193;-45
2023/07/01 10:14:15;;;;;;;5.20;4.70;;;;;;;30.46;41.99;94160.75;5092909;28;20581;-45
2023/07/01 10:16:49;;;;;;;7.25;4.40;;;;;;;30.49;42.70;94149.66;5092525;28;20201;-45
2023/07/01 10:19:27;;;;;;;4.75;4.30;;;;;;;30.56;42.88;94162.53;5093478;28;20272;-46
2023/07/01 10:21:54;;;;;;;6.53;4.65;;;;;;;30.58;42.54;94158.56;5093193;28;20283;-47
2023/07/01 10:24:37;;;;;;;5.20;4.70;;;;;;;30.38;42.72;94142.88;5093084;28;20587;-44
2023/07/01 10:27:05;;;;;;;5.88;5.38;;;;;;;30.36;43.56;94155.56;5093077;28;20644;-45
2023/07/01 10:29:56;;;;;;;8.45;5.25;;;;;;;30.35;42.73;94149.47;5092338;28;20572;-44
2023/07/01 10:32:34;;;;;;;6.65;4.90;;;;;;;30.27;43.26;94139.53;5092714;28;20233;-45
2023/07/01 10:35:13;;;;;;;5.65;5.18;;;;;;;30.21;43.26;94137.97;5092387;28;20221;-45
2023/07/01 10:37:41;;;;;;;7.22;5.50;;;;;;;30.27;43.84;94134.25;5088077;28;20225;-46
2023/07/01 10:40:41;;;;;;;6.50;5.28;;;;;;;30.34;44.05;94141.84;5092940;28;20613;-46
2023/07/01 10:43:25;;;;;;;9.50;4.85;;;;;;;30.46;45.34;94137.00;5088940;28;20572;-47
2023/07/01 10:46:10;;;;;;;5.78;5.28;;;;;;;30.55;44.00;94124.00;5092779;28;20351;-46
2023/07/01 10:48:39;;;;;;;5.18;4.68;;;;;;;30.61;42.83;94136.88;5092594;28;20193;-45
2023/07/01 10:51:07;;;;;;;7.63;5.20;;;;;;;30.59;43.74;94141.66;5092103;28;20201;-43
2023/07/01 10:53:56;;;;;;;7.40;5.25;;;;;;;30.59;43.69;94133.75;5092844;28;20208;-46
2023/07/01 10:56:23;;;;;;;7.15;5.68;;;;;;;30.52;43.91;94130.63;5091884;28;20613;-45
2023/07/01 10:59:21;;;;;;;8.68;5.68;;;;;;;30.51;44.07;94130.91;5092623;28;20186;-43
2023/07/01 11:01:49;;;;;;;5.60;5.10;;;;;;;30.61;43.34;94125.53;5091898;28;20661;-45
2023/07/01 11:04:18;;;;;;;7.30;5.55;;;;;;;30.61;43.12;94115.75;5092064;28;20577;-46
2023/07/01 11:06:49;;;;;;;6.13;4.85;;;;;;;30.70;44.01;94127.31;5092132;28;20186;-44
2023/07/01 11:09:17;;;;;;;6.65;5.18;;;;;;;30.72;43.97;94117.28;5092009;28;20194;-45
2023/07/01 11:11:44;;;;;;;7.07;6.03;;;;;;;30.72;44.31;94113.88;5091744;28;20285;-44
2023/07/01 11:14:12;;;;;;;9.18;5.55;;;;;;;30.59;44.25;94096.00;5091906;28;20189;-44
2023/07/01 11:16:40;;;;;;;6.78;5.80;;;;;;;30.76;44.21;94106.19;5091512;28;20189;-45
2023/07/01 11:19:08;;;;;;;6.03;5.00;;;;;;;30.66;44.00;94081.44;5073681;28;20223;-45
2023/07/01 11:21:38;;;;;;;7.18;5.72;;;;;;;30.72;43.65;94085.59;5091524;28;20700;-44
2023/07/01 11:24:07;;;;;;;6.30;5.70;;;;;;;30.99;43.38;94113.34;5091760;28;20593;-44
2023/07/01 11:26:35;;;;;;;6.38;5.10;;;;;;;30.99;43.27;94110.69;5091674;28;20224;-45
2023/07/01 11:29:03;;;;;;;5.55;5.05;;;;;;;30.59;42.87;94043.22;5091512;28;20275;-43
2023/07/01 11:31:32;;;;;;;7.00;5.07;;;;;;;31.10;43.11;94109.53;5091201;28;20558;-46
2023/07/01 11:34:00;;;;;;;6.38;5.78;;;;;;;31.18;43.20;94098.38;5092173;28;20192;-43
2023/07/01 11:36:36;;;;;;;5.97;5.45;;;;;;;31.22;42.41;94098.59;5091430;28;20190;-46